This is the latest recevied weather packets stored in our database for station/object ES2ADF-5. If no packets are shown the sender has not sent any weather packets the latest 10 day(s).
| Time | Temp. | Humidity | Pressure | Rain* | Wind** | Luminosity | Snow |
|---|---|---|---|---|---|---|---|
| 1777614281 | 20° C | 48% | 1021 hPa | 0 mm | - | - | - |
| 1777613981 | 20° C | 48% | 1021.1 hPa | 0 mm | - | - | - |
| 1777613680 | 20° C | 49% | 1021 hPa | 0 mm | - | - | - |
| 1777613380 | 20° C | 49% | 1021.1 hPa | 0 mm | - | - | - |
| 1777613080 | 20° C | 50% | 1021 hPa | 0 mm | - | - | - |
| 1777612780 | 19.44° C | 50% | 1020.7 hPa | 0 mm | - | - | - |
| 1777612479 | 19.44° C | 52% | 1021 hPa | 0 mm | - | - | - |
| 1777612179 | 18.89° C | 53% | 1021 hPa | 0 mm | - | - | - |
| 1777611879 | 18.89° C | 54% | 1021 hPa | 0 mm | - | - | - |
| 1777611578 | 18.33° C | 56% | 1021.2 hPa | 0 mm | - | - | - |
| 1777611278 | 17.78° C | 58% | 1021.2 hPa | 0 mm | - | - | - |
| 1777610978 | 17.22° C | 59% | 1021.2 hPa | 0 mm | - | - | - |
| 1777610678 | 16.11° C | 63% | 1021.2 hPa | 0 mm | - | - | - |
| 1777610377 | 15.56° C | 67% | 1021.3 hPa | 0 mm | - | - | - |
| 1777610077 | 13.33° C | 75% | 1021.3 hPa | 0 mm | - | - | - |
| 1777609777 | 11.11° C | 81% | 1021.5 hPa | 0 mm | - | - | - |
| 1777609477 | 9.44° C | 84% | 1021.4 hPa | 0 mm | - | - | - |
| 1777609176 | 7.78° C | 85% | 1021.4 hPa | 0 mm | - | - | - |
| 1777608876 | 7.22° C | 85% | 1021.2 hPa | 0 mm | - | - | - |
| 1777608575 | 6.67° C | 85% | 1021.4 hPa | 0 mm | - | - | - |
| 1777608275 | 6.67° C | 85% | 1021.4 hPa | 0 mm | - | - | - |
| 1777607975 | 6.11° C | 86% | 1021.5 hPa | 0 mm | - | - | - |
| 1777607675 | 6.11° C | 86% | 1021.5 hPa | 0 mm | - | - | - |
| 1777607374 | 6.11° C | 86% | 1021.3 hPa | 0 mm | - | - | - |
| 1777607074 | 6.11° C | 87% | 1021.4 hPa | 0 mm | - | - | - |
* Rain latest hour (hover to see other rain measurements)
** Current wind speed in m/s (hover to see current wind gust speed)